Time;durP1;ratioP1;P1;durP2;ratioP2;P2;SDS_P1;SDS_P2;PMS_P1;PMS_P2;Temp;Humidity;BMP_temperature;BMP_pressure;BME280_temperature;BME280_humidity;BME280_pressure;Samples;Min_cycle;Max_cycle;Signal;HPM_P1;HPM_P2
2023/07/18 00:01:33;;;;;;;1.00;1.00;;;;;;;22.64;73.18;97120.31;5067497;28;20052;-73
2023/07/18 00:04:00;;;;;;;0.90;0.90;;;;;;;22.37;73.54;97089.59;5065652;28;20481;-74
2023/07/18 00:06:26;;;;;;;0.90;0.90;;;;;;;22.24;73.67;97102.84;5067282;28;20076;-73
2023/07/18 00:08:53;;;;;;;1.00;1.00;;;;;;;22.19;73.62;97092.09;5065643;28;20511;-73
2023/07/18 00:11:22;;;;;;;0.90;0.90;;;;;;;22.19;74.22;97106.22;5067277;28;20790;-73
2023/07/18 00:13:49;;;;;;;0.88;0.88;;;;;;;21.57;74.25;97016.44;5066946;28;20060;-74
2023/07/18 00:16:16;;;;;;;1.00;1.00;;;;;;;22.34;74.22;97127.19;5067375;28;20051;-73
2023/07/18 00:18:43;;;;;;;0.95;0.95;;;;;;;21.81;74.43;97034.75;5066957;28;20053;-73
2023/07/18 00:21:12;;;;;;;1.00;1.00;;;;;;;22.48;73.90;97120.31;5066908;28;20052;-73
2023/07/18 00:23:39;;;;;;;0.88;0.88;;;;;;;22.42;74.38;97122.94;5065534;28;20576;-73
2023/07/18 00:26:05;;;;;;;1.00;1.00;;;;;;;22.15;75.97;97099.91;5066802;28;20052;-73
2023/07/18 00:28:32;;;;;;;1.00;1.00;;;;;;;21.68;75.80;97025.41;5067077;28;20048;-74
2023/07/18 00:30:59;;;;;;;1.10;1.10;;;;;;;22.06;76.01;97082.81;5066385;28;20079;-73
2023/07/18 00:33:26;;;;;;;1.10;1.10;;;;;;;22.06;75.29;97074.34;5066562;28;20060;-73
2023/07/18 00:35:53;;;;;;;1.00;1.00;;;;;;;22.45;74.25;97113.56;5064785;28;20131;-73
2023/07/18 00:38:20;;;;;;;0.98;0.98;;;;;;;22.52;73.58;97114.63;5066773;28;20079;-73
2023/07/18 00:40:48;;;;;;;0.93;0.93;;;;;;;22.39;73.72;97108.91;5065458;28;20063;-73
2023/07/18 00:43:15;;;;;;;1.15;1.15;;;;;;;22.26;73.55;97077.81;5066526;28;20052;-73
2023/07/18 00:45:44;;;;;;;1.00;1.00;;;;;;;22.51;73.77;97098.91;5066312;28;20052;-72
2023/07/18 00:48:11;;;;;;;1.10;1.10;;;;;;;22.56;73.21;97109.69;5046848;28;20154;-73
2023/07/18 00:50:38;;;;;;;0.90;0.90;;;;;;;22.52;72.98;97101.31;5044765;28;20067;-74
2023/07/18 00:53:05;;;;;;;1.10;1.10;;;;;;;22.33;73.58;97083.25;5044620;28;20131;-72
2023/07/18 00:55:32;;;;;;;1.10;1.10;;;;;;;22.11;73.31;97048.38;5045883;28;20049;-73
2023/07/18 00:58:01;;;;;;;1.20;1.20;;;;;;;22.36;73.66;97098.50;5046187;28;20084;-73
2023/07/18 01:00:28;;;;;;;1.10;1.10;;;;;;;21.70;73.20;96977.03;5045984;28;20055;-73
2023/07/18 01:02:54;;;;;;;1.00;1.00;;;;;;;22.34;73.22;97090.50;5044576;28;20443;-71
2023/07/18 01:05:22;;;;;;;1.10;1.10;;;;;;;22.11;72.86;97048.38;5045766;28;20492;-73
2023/07/18 01:07:49;;;;;;;0.90;0.90;;;;;;;21.07;72.91;96889.34;5045962;28;20053;-73
2023/07/18 01:10:22;;;;;;;1.00;1.00;;;;;;;21.91;72.96;97022.38;5045558;28;20068;-72
2023/07/18 01:13:02;;;;;;;1.23;1.23;;;;;;;22.00;73.35;97047.91;5044526;28;20118;-71
2023/07/18 01:15:31;;;;;;;1.02;1.02;;;;;;;21.56;72.99;96961.28;5045582;28;20053;-73
2023/07/18 01:18:03;;;;;;;1.00;1.00;;;;;;;21.83;73.23;97026.63;5046134;28;20155;-73
2023/07/18 01:20:30;;;;;;;1.00;1.00;;;;;;;21.76;73.04;97015.56;5044373;28;20053;-73
2023/07/18 01:23:00;;;;;;;0.90;0.90;;;;;;;22.06;73.69;97084.84;5045845;28;20049;-72
2023/07/18 01:25:27;;;;;;;0.90;0.90;;;;;;;21.99;73.52;97080.19;5044440;28;20076;-73
2023/07/18 01:27:55;;;;;;;1.00;1.00;;;;;;;21.63;73.68;97028.75;5045450;28;20492;-72
2023/07/18 01:30:24;;;;;;;0.90;0.90;;;;;;;21.46;74.09;97017.94;5045510;28;20049;-71
2023/07/18 01:32:52;;;;;;;0.93;0.93;;;;;;;21.31;74.24;96989.34;5045548;28;20071;-73
2023/07/18 01:35:23;;;;;;;0.95;0.95;;;;;;;21.65;74.77;97074.22;5043974;28;20097;-74
2023/07/18 01:37:50;;;;;;;0.90;0.90;;;;;;;21.69;74.28;97055.19;5045811;28;20136;-73
2023/07/18 01:40:22;;;;;;;0.95;0.95;;;;;;;21.43;74.64;97047.00;5045381;28;20055;-74
2023/07/18 01:42:52;;;;;;;1.00;1.00;;;;;;;21.42;75.11;97057.50;5046165;28;20060;-74
2023/07/18 01:45:20;;;;;;;0.90;0.90;;;;;;;21.46;75.16;97063.84;5045108;28;20089;-74
2023/07/18 01:47:49;;;;;;;1.00;1.00;;;;;;;20.81;75.99;96997.41;5060019;28;20049;-74
2023/07/18 01:50:17;;;;;;;0.93;0.93;;;;;;;21.30;76.31;97072.28;5065317;28;20533;-74
2023/07/18 01:52:46;;;;;;;0.90;0.90;;;;;;;20.87;76.36;96992.84;5063320;28;20044;-72
2023/07/18 01:55:13;;;;;;;0.90;0.90;;;;;;;20.63;76.12;96968.88;5064272;28;20052;-73
2023/07/18 01:57:40;;;;;;;0.90;0.90;;;;;;;21.28;76.43;97086.03;5065299;28;20052;-73
2023/07/18 02:00:12;;;;;;;1.00;1.00;;;;;;;21.22;77.32;97059.63;5065255;28;20058;-74
2023/07/18 02:02:40;;;;;;;1.00;1.00;;;;;;;20.71;77.45;96990.00;5064591;28;20574;-74
2023/07/18 02:05:08;;;;;;;1.00;1.00;;;;;;;20.84;77.36;97011.41;5063070;28;20049;-72
2023/07/18 02:07:35;;;;;;;1.02;1.02;;;;;;;21.04;77.32;97036.69;5064660;28;20052;-73
2023/07/18 02:10:02;;;;;;;1.00;1.00;;;;;;;21.13;77.12;97044.56;5064892;28;20044;-74
2023/07/18 02:12:29;;;;;;;0.93;0.93;;;;;;;20.85;76.74;97023.44;5065030;28;20143;-74
2023/07/18 02:14:55;;;;;;;0.98;0.98;;;;;;;20.62;77.59;97003.88;5064358;28;20529;-73
2023/07/18 02:17:22;;;;;;;1.00;1.00;;;;;;;20.80;77.44;97021.19;5064383;28;20062;-75
2023/07/18 02:19:49;;;;;;;0.90;0.90;;;;;;;20.89;78.19;97063.59;5064644;28;20462;-73
2023/07/18 02:22:19;;;;;;;0.90;0.90;;;;;;;20.66;78.72;97013.06;5064777;28;20054;-73
2023/07/18 02:24:47;;;;;;;1.00;1.00;;;;;;;20.97;78.76;97059.41;5064264;28;20102;-73
2023/07/18 02:27:14;;;;;;;0.93;0.93;;;;;;;20.86;78.70;97053.22;5064670;28;20548;-74
2023/07/18 02:29:41;;;;;;;0.90;0.90;;;;;;;20.48;79.85;96999.38;5064634;28;20056;-73
2023/07/18 02:32:08;;;;;;;1.00;1.00;;;;;;;20.27;79.70;96959.66;5063372;28;20053;-72
2023/07/18 02:34:35;;;;;;;1.00;1.00;;;;;;;20.94;79.15;97037.72;5064307;28;20143;-74
2023/07/18 02:37:01;;;;;;;1.00;1.00;;;;;;;20.66;78.81;96993.34;5062749;28;20048;-74
2023/07/18 02:39:32;;;;;;;1.00;1.00;;;;;;;20.82;79.03;97035.59;5064301;28;20059;-75
2023/07/18 02:41:59;;;;;;;1.00;1.00;;;;;;;20.72;79.52;97031.78;5064408;28;20052;-73
2023/07/18 02:44:26;;;;;;;0.90;0.90;;;;;;;20.51;78.90;96980.81;5063990;28;20067;-71
2023/07/18 02:46:53;;;;;;;1.00;1.00;;;;;;;20.90;78.84;97039.81;5056278;28;20049;-74
2023/07/18 02:49:20;;;;;;;0.90;0.90;;;;;;;20.34;78.45;96948.25;5044378;28;20474;-73
2023/07/18 02:51:46;;;;;;;1.00;1.00;;;;;;;20.66;77.91;96999.75;5042961;28;20045;-73
2023/07/18 02:54:13;;;;;;;0.90;0.90;;;;;;;20.66;77.56;96990.53;5043668;28;20064;-74
2023/07/18 02:56:40;;;;;;;0.90;0.90;;;;;;;21.02;77.52;97058.91;5036084;28;20067;-74
2023/07/18 02:59:06;;;;;;;0.88;0.88;;;;;;;20.88;77.62;97045.13;5021991;28;20558;-73
2023/07/18 03:01:34;;;;;;;0.90;0.90;;;;;;;20.66;77.74;97010.25;5023962;28;20053;-74
2023/07/18 03:04:00;;;;;;;1.00;1.00;;;;;;;20.73;77.93;97032.59;5023514;28;20057;-74
2023/07/18 03:06:29;;;;;;;0.90;0.90;;;;;;;20.93;78.08;97053.84;5023883;28;20049;-73
2023/07/18 03:08:55;;;;;;;0.90;0.90;;;;;;;20.81;77.88;97039.66;5022894;28;20049;-72
2023/07/18 03:11:22;;;;;;;1.00;1.00;;;;;;;20.69;78.29;97026.25;5023914;28;20058;-73
2023/07/18 03:13:49;;;;;;;0.90;0.90;;;;;;;20.15;78.65;96957.53;5023700;28;20534;-74
2023/07/18 03:16:16;;;;;;;0.90;0.90;;;;;;;20.65;78.46;97025.53;5024349;28;20266;-73
2023/07/18 03:18:43;;;;;;;0.90;0.90;;;;;;;20.48;78.13;96987.34;5024399;28;20079;-74
2023/07/18 03:21:09;;;;;;;1.00;1.00;;;;;;;20.89;78.03;97057.97;5023778;28;20060;-73
2023/07/18 03:23:36;;;;;;;1.00;1.00;;;;;;;20.81;78.74;97056.53;5023714;28;20059;-71
2023/07/18 03:26:03;;;;;;;1.00;1.00;;;;;;;20.67;78.90;97028.72;5023700;28;20530;-74
2023/07/18 03:28:29;;;;;;;1.00;1.00;;;;;;;20.17;77.91;96943.84;5023912;28;20053;-72
2023/07/18 03:30:56;;;;;;;1.00;1.00;;;;;;;20.49;78.38;96994.53;5023902;28;20056;-74
2023/07/18 03:33:23;;;;;;;1.00;1.00;;;;;;;20.96;77.84;97069.09;5022275;28;20053;-72
2023/07/18 03:35:49;;;;;;;1.00;1.00;;;;;;;20.30;77.98;96939.09;5022221;28;20061;-74
2023/07/18 03:38:16;;;;;;;0.90;0.90;;;;;;;20.86;78.42;97030.69;5022461;28;20057;-74
2023/07/18 03:40:43;;;;;;;0.90;0.90;;;;;;;20.80;77.50;97016.31;5021938;28;20081;-73
2023/07/18 03:43:09;;;;;;;0.90;0.90;;;;;;;20.94;77.12;97006.75;5023763;28;20502;-74
2023/07/18 03:45:36;;;;;;;1.00;1.00;;;;;;;21.23;75.90;97030.19;5022102;28;20153;-72
2023/07/18 03:48:03;;;;;;;0.90;0.90;;;;;;;21.11;75.20;97005.56;5040899;28;20056;-73
2023/07/18 03:50:30;;;;;;;1.00;1.00;;;;;;;21.06;75.89;97028.59;5043379;28;20152;-73
2023/07/18 03:52:56;;;;;;;0.90;0.90;;;;;;;21.31;75.29;97050.56;5043694;28;20151;-74
2023/07/18 03:55:23;;;;;;;1.00;1.00;;;;;;;21.36;75.36;97066.91;5041744;28;20057;-72
2023/07/18 03:57:50;;;;;;;1.00;1.00;;;;;;;21.43;75.14;97059.09;5043529;28;20056;-72
2023/07/18 04:00:17;;;;;;;1.00;1.00;;;;;;;21.21;74.47;97003.69;5043487;28;20049;-73
2023/07/18 04:02:46;;;;;;;0.90;0.90;;;;;;;20.02;74.39;96858.16;5043581;28;20048;-74
2023/07/18 04:05:17;;;;;;;0.90;0.90;;;;;;;21.62;74.66;97061.00;5041850;28;20454;-74
2023/07/18 04:07:45;;;;;;;0.90;0.90;;;;;;;21.75;74.07;97059.06;5042602;28;20049;-74
2023/07/18 04:10:13;;;;;;;1.00;1.00;;;;;;;21.91;73.56;97061.84;5042239;28;20048;-72
2023/07/18 04:12:40;;;;;;;0.90;0.90;;;;;;;21.67;73.78;97000.47;5043583;28;20049;-73
2023/07/18 04:15:08;;;;;;;1.00;1.00;;;;;;;22.18;73.07;97053.84;5042614;28;20059;-74
2023/07/18 04:17:35;;;;;;;1.10;1.10;;;;;;;22.02;73.01;97034.16;5046771;28;20044;-76
2023/07/18 04:20:04;;;;;;;1.02;1.02;;;;;;;22.20;73.13;97045.72;5047003;28;20478;-73
2023/07/18 04:22:31;;;;;;;1.20;1.20;;;;;;;21.10;71.85;96837.78;5046728;28;20503;-75
2023/07/18 04:24:58;;;;;;;1.00;1.00;;;;;;;22.39;71.31;97025.00;5045590;28;20053;-74
2023/07/18 04:27:27;;;;;;;0.95;0.95;;;;;;;22.62;71.41;97048.56;5046734;28;20056;-74
2023/07/18 04:29:56;;;;;;;1.10;1.10;;;;;;;22.50;70.70;96985.16;5046668;28;20552;-75
2023/07/18 04:32:23;;;;;;;0.90;0.90;;;;;;;21.81;69.59;96876.81;5046626;28;20052;-75
2023/07/18 04:34:50;;;;;;;0.90;0.90;;;;;;;22.62;70.11;97032.41;5046373;28;20446;-74
2023/07/18 04:37:17;;;;;;;1.00;1.00;;;;;;;22.77;70.23;97021.47;5047080;28;20048;-72
2023/07/18 04:39:43;;;;;;;1.10;1.10;;;;;;;23.01;69.08;97002.94;5047201;28;20060;-75
2023/07/18 04:42:11;;;;;;;1.00;1.00;;;;;;;23.45;67.61;97022.47;5046791;28;20067;-74
2023/07/18 04:44:38;;;;;;;1.15;1.15;;;;;;;23.16;67.33;96953.16;5046312;28;20546;-75
2023/07/18 04:47:05;;;;;;;1.00;1.00;;;;;;;23.75;66.44;97029.53;5036564;28;20789;-74
2023/07/18 04:49:32;;;;;;;1.05;1.05;;;;;;;23.27;66.92;96931.81;5026426;28;20050;-74
2023/07/18 04:51:58;;;;;;;1.10;1.10;;;;;;;23.31;66.45;96909.06;5026176;28;20148;-75
2023/07/18 04:54:25;;;;;;;1.02;1.02;;;;;;;24.23;65.81;97019.72;5031941;28;20436;-74
2023/07/18 04:56:53;;;;;;;1.00;1.00;;;;;;;24.45;64.82;97021.31;5045281;28;20506;-74
2023/07/18 04:59:21;;;;;;;1.00;1.00;;;;;;;23.67;68.31;97012.00;5046027;28;20045;-74
2023/07/18 05:01:54;;;;;;;0.90;0.90;;;;;;;24.09;68.01;97026.69;5044442;28;20431;-74
2023/07/18 05:04:21;;;;;;;0.95;0.95;;;;;;;23.93;68.42;96984.41;5045943;28;20242;-77
2023/07/18 05:06:51;;;;;;;1.10;1.10;;;;;;;24.03;66.99;96966.25;5046240;28;20073;-74
2023/07/18 05:09:17;;;;;;;1.10;1.10;;;;;;;24.57;65.58;97011.13;5069854;28;20423;-75
2023/07/18 05:11:46;;;;;;;1.10;1.10;;;;;;;24.16;64.36;96935.84;5064097;28;20052;-72
2023/07/18 05:14:13;;;;;;;1.00;1.00;;;;;;;24.57;65.67;97033.78;5065948;28;20057;-75
2023/07/18 05:16:40;;;;;;;1.10;1.10;;;;;;;24.55;64.52;96980.44;5065945;28;20445;-75
2023/07/18 05:19:06;;;;;;;1.02;1.02;;;;;;;24.90;63.60;96984.72;5065843;28;20445;-74
2023/07/18 05:21:33;;;;;;;1.20;1.20;;;;;;;25.31;61.59;97003.28;5064320;28;20052;-74
2023/07/18 05:24:00;;;;;;;1.10;1.10;;;;;;;24.90;62.24;96950.72;5060750;28;20102;-74
2023/07/18 05:26:26;;;;;;;1.15;1.15;;;;;;;24.34;63.27;96817.03;5049085;28;20053;-69
2023/07/18 05:28:53;;;;;;;1.20;1.20;;;;;;;25.07;62.79;96898.16;5040498;28;20045;-61
2023/07/18 05:31:20;;;;;;;1.17;1.17;;;;;;;25.39;61.12;96928.03;5040174;28;20053;-66
2023/07/18 05:33:48;;;;;;;1.20;1.20;;;;;;;25.72;60.48;96948.09;5044576;28;20140;-71
2023/07/18 05:36:16;;;;;;;1.10;1.10;;;;;;;25.89;58.53;96929.47;5045253;28;20064;-65
2023/07/18 05:38:45;;;;;;;1.35;1.35;;;;;;;26.41;57.64;97002.97;5042634;28;20055;-67
2023/07/18 05:41:12;;;;;;;1.30;1.30;;;;;;;26.68;56.93;96991.56;5045342;28;20104;-73
2023/07/18 05:43:39;;;;;;;1.35;1.35;;;;;;;26.66;57.28;96975.00;5039856;28;20111;-63
2023/07/18 05:46:05;;;;;;;1.40;1.40;;;;;;;26.40;57.31;96890.56;5029180;28;20041;-70
2023/07/18 05:48:32;;;;;;;1.38;1.38;;;;;;;26.91;56.20;96951.03;5044413;28;20089;-67
2023/07/18 05:51:03;;;;;;;1.30;1.30;;;;;;;27.24;55.73;96957.50;5026958;28;20056;-63
2023/07/18 05:53:29;;;;;;;1.30;1.30;;;;;;;27.36;55.63;96933.75;5042509;28;20084;-68
2023/07/18 05:55:56;;;;;;;1.30;1.30;;;;;;;27.53;55.31;96936.97;5040596;28;20053;-61
2023/07/18 05:58:22;;;;;;;1.50;1.50;;;;;;;27.66;54.53;96929.72;5040788;28;20056;-68
2023/07/18 06:00:50;;;;;;;1.52;1.52;;;;;;;27.25;55.00;96907.84;5042621;28;20068;-70
2023/07/18 06:03:17;;;;;;;1.70;1.70;;;;;;;26.65;54.35;96765.16;5040210;28;20049;-75
2023/07/18 06:05:44;;;;;;;1.60;1.60;;;;;;;28.22;52.79;96942.28;5040278;28;20103;-64
2023/07/18 06:08:11;;;;;;;1.70;1.70;;;;;;;28.63;52.19;96955.47;5043259;28;20063;-67
2023/07/18 06:10:38;;;;;;;1.50;1.50;;;;;;;28.78;51.69;96964.81;5034756;28;20591;-63
2023/07/18 06:13:04;;;;;;;1.73;1.73;;;;;;;28.79;50.99;96929.28;5026182;28;20050;-71
2023/07/18 06:15:31;;;;;;;1.50;1.50;;;;;;;28.75;50.68;96923.00;5042587;28;20056;-66
2023/07/18 06:17:58;;;;;;;1.70;1.70;;;;;;;29.31;49.61;96959.69;5042103;28;20139;-66
2023/07/18 06:20:25;;;;;;;1.70;1.70;;;;;;;28.70;49.87;96858.13;5040471;28;20046;-67
2023/07/18 06:22:52;;;;;;;1.70;1.70;;;;;;;29.28;49.54;96937.84;5044462;28;20508;-70
2023/07/18 06:25:19;;;;;;;1.83;1.83;;;;;;;28.43;50.93;96861.28;5043231;28;20056;-68
2023/07/18 06:27:45;;;;;;;1.60;1.60;;;;;;;29.19;50.85;96957.97;5044158;28;20132;-67
2023/07/18 06:30:12;;;;;;;1.48;1.48;;;;;;;29.32;50.70;96959.19;5043342;28;20081;-70
2023/07/18 06:32:39;;;;;;;1.90;1.90;;;;;;;28.98;50.06;96885.00;5044483;28;20088;-64
2023/07/18 06:35:06;;;;;;;1.73;1.73;;;;;;;28.34;49.48;96773.06;5044221;28;20068;-66
2023/07/18 06:37:48;;;;;;;1.75;1.75;;;;;;;29.41;49.77;96889.78;5036431;28;20048;-65
2023/07/18 06:40:15;;;;;;;1.60;1.60;;;;;;;29.29;49.04;96865.25;5043588;28;20071;-71
2023/07/18 06:42:42;;;;;;;1.70;1.70;;;;;;;29.22;49.87;96934.94;5043253;28;20056;-70
2023/07/18 06:45:12;;;;;;;1.77;1.77;;;;;;;28.76;49.68;96876.88;5039893;28;20049;-71
2023/07/18 06:47:38;;;;;;;1.75;1.75;;;;;;;28.57;49.68;96849.09;5038846;28;20407;-71
2023/07/18 06:50:06;;;;;;;1.70;1.70;;;;;;;29.44;49.51;96940.16;5042609;28;20106;-73
2023/07/18 06:52:33;;;;;;;1.73;1.73;;;;;;;29.07;48.85;96819.28;5042127;28;20053;-68
2023/07/18 06:55:03;;;;;;;1.75;1.75;;;;;;;29.75;49.82;96931.78;5041552;28;20056;-70
2023/07/18 06:57:30;;;;;;;1.85;1.85;;;;;;;29.58;48.99;96893.63;5039641;28;20588;-73
2023/07/18 06:59:57;;;;;;;1.80;1.80;;;;;;;30.25;47.34;96930.31;5042553;28;20078;-71
2023/07/18 07:02:24;;;;;;;1.60;1.60;;;;;;;30.72;47.28;96964.06;5045407;28;20052;-70
2023/07/18 07:04:51;;;;;;;1.60;1.60;;;;;;;30.94;47.22;96938.53;5044497;28;20052;-70
2023/07/18 07:07:17;;;;;;;2.08;2.08;;;;;;;30.86;47.93;96923.13;5040806;28;20079;-68
2023/07/18 07:09:44;;;;;;;1.90;1.90;;;;;;;30.97;47.44;96905.22;5044454;28;20049;-71
2023/07/18 07:12:11;;;;;;;1.98;1.98;;;;;;;31.28;46.45;96930.97;5044085;28;20053;-68
2023/07/18 07:14:52;;;;;;;2.10;2.10;;;;;;;31.75;46.65;96946.59;5042620;28;20052;-72
2023/07/18 07:17:18;;;;;;;1.90;1.90;;;;;;;32.01;45.24;96975.94;5041801;28;20103;-75
2023/07/18 07:19:45;;;;;;;2.00;2.00;;;;;;;31.84;45.08;96927.13;5043338;28;20060;-69
2023/07/18 07:22:13;;;;;;;1.60;1.60;;;;;;;32.27;44.95;96950.75;5041969;28;20048;-70
2023/07/18 07:24:41;;;;;;;1.90;1.90;;;;;;;32.10;45.20;96883.97;5040824;28;20048;-67
2023/07/18 07:27:09;;;;;;;1.95;1.95;;;;;;;32.09;45.01;96888.16;5040984;28;20088;-70
2023/07/18 07:29:41;;;;;;;1.88;1.88;;;;;;;32.63;44.61;96938.31;5041653;28;20075;-71
2023/07/18 07:32:08;;;;;;;2.10;2.10;;;;;;;32.17;44.49;96869.91;5040579;28;20045;-69
2023/07/18 07:34:35;;;;;;;2.15;2.15;;;;;;;32.51;45.16;96910.94;5042605;28;20073;-69
2023/07/18 07:37:05;;;;;;;1.92;1.92;;;;;;;32.75;44.76;96931.28;5042860;28;20053;-72
2023/07/18 07:39:31;;;;;;;2.00;2.00;;;;;;;32.54;44.55;96875.47;5043871;28;20057;-70
2023/07/18 07:41:58;;;;;;;1.80;1.80;;;;;;;33.11;44.39;96901.56;5042710;28;20053;-71
2023/07/18 07:44:25;;;;;;;1.83;1.83;;;;;;;33.19;42.89;96885.34;5042487;28;20057;-68
2023/07/18 07:46:51;;;;;;;1.70;1.70;;;;;;;32.52;45.06;96809.22;5042100;28;20059;-71
2023/07/18 07:49:18;;;;;;;1.98;1.98;;;;;;;33.62;44.57;96923.91;5041593;28;20052;-72
2023/07/18 07:51:45;;;;;;;1.80;1.80;;;;;;;33.70;43.24;96883.94;5042787;28;20110;-73
2023/07/18 07:54:14;;;;;;;1.88;1.88;;;;;;;33.17;42.51;96778.84;5043941;28;20056;-72
2023/07/18 07:56:40;;;;;;;1.90;1.90;;;;;;;33.83;42.76;96861.13;5041713;28;20044;-69
2023/07/18 07:59:07;;;;;;;2.05;2.05;;;;;;;34.37;42.15;96913.13;5044416;28;20263;-74
2023/07/18 08:01:38;;;;;;;2.20;2.20;;;;;;;34.34;42.48;96914.19;5042885;28;20106;-70
2023/07/18 08:04:05;;;;;;;1.95;1.95;;;;;;;34.28;42.84;96916.31;5043230;28;20059;-70
2023/07/18 08:06:32;;;;;;;2.03;2.03;;;;;;;34.10;43.44;96848.72;5042580;28;20048;-70
2023/07/18 08:08:59;;;;;;;2.15;2.15;;;;;;;34.69;42.03;96911.38;5046125;28;20075;-65
2023/07/18 08:11:26;;;;;;;1.75;1.75;;;;;;;35.05;41.09;96907.16;5046231;28;20193;-66
2023/07/18 08:13:53;;;;;;;1.77;1.77;;;;;;;35.38;39.47;96909.00;5043272;28;20048;-71
2023/07/18 08:16:20;;;;;;;2.35;2.33;;;;;;;35.70;39.23;96912.81;5031723;28;20068;-75
2023/07/18 08:18:47;;;;;;;1.85;1.85;;;;;;;35.00;40.19;96833.13;5029170;28;20101;-72
2023/07/18 08:21:14;;;;;;;2.00;2.00;;;;;;;35.82;39.92;96914.25;5043873;28;20426;-72
2023/07/18 08:23:41;;;;;;;2.00;2.00;;;;;;;35.93;38.90;96900.47;5044781;28;20056;-71
2023/07/18 08:26:07;;;;;;;1.83;1.83;;;;;;;34.87;38.62;96755.22;5045508;28;20057;-71
2023/07/18 08:28:34;;;;;;;1.90;1.90;;;;;;;34.19;38.86;96655.72;5045496;28;20926;-69
2023/07/18 08:31:04;;;;;;;1.95;1.95;;;;;;;35.23;39.00;96811.41;5045681;28;20523;-74
2023/07/18 08:33:31;;;;;;;2.00;2.00;;;;;;;35.93;39.01;96874.53;5045748;28;20049;-71
2023/07/18 08:35:58;;;;;;;2.10;2.10;;;;;;;36.17;38.02;96874.47;5043317;28;20055;-70
2023/07/18 08:38:25;;;;;;;2.33;2.33;;;;;;;36.19;38.26;96845.84;5045793;28;20574;-76
2023/07/18 08:40:52;;;;;;;1.90;1.90;;;;;;;36.53;38.65;96862.69;5046149;28;20096;-73
2023/07/18 08:43:20;;;;;;;1.95;1.95;;;;;;;36.86;38.48;96885.25;5045881;28;20426;-67
2023/07/18 08:45:47;;;;;;;1.90;1.90;;;;;;;36.84;37.65;96882.13;5045044;28;20284;-74
2023/07/18 08:48:14;;;;;;;2.28;2.28;;;;;;;35.26;37.64;96639.56;5045683;28;20083;-71
2023/07/18 08:50:41;;;;;;;1.90;1.90;;;;;;;37.02;36.18;96887.09;5045953;28;20060;-73
2023/07/18 08:53:08;;;;;;;2.08;2.08;;;;;;;35.75;38.35;96851.41;5045484;28;20658;-68
2023/07/18 08:55:36;;;;;;;1.98;1.98;;;;;;;35.43;39.11;96874.31;5045173;28;20567;-70
2023/07/18 08:58:05;;;;;;;1.65;1.65;;;;;;;35.20;39.89;96875.88;5045861;28;20049;-69
2023/07/18 09:00:31;;;;;;;1.90;1.90;;;;;;;34.82;40.02;96811.56;5039869;28;20057;-68
2023/07/18 09:02:58;;;;;;;2.28;2.28;;;;;;;35.45;39.12;96857.28;5025660;28;20126;-70
2023/07/18 09:05:36;;;;;;;2.10;2.10;;;;;;;35.02;38.35;96764.25;5025591;28;20347;-73
2023/07/18 09:08:04;;;;;;;2.10;2.10;;;;;;;35.39;37.76;96801.03;5050312;28;20049;-69
2023/07/18 09:10:31;;;;;;;1.95;1.95;;;;;;;35.95;38.54;96888.41;5038293;28;20053;-70
2023/07/18 09:13:04;;;;;;;2.08;2.08;;;;;;;35.46;39.22;96898.44;5027608;28;20072;-66
2023/07/18 09:15:36;;;;;;;1.90;1.90;;;;;;;35.93;38.42;96891.81;5040923;28;20163;-71
2023/07/18 09:18:05;;;;;;;2.03;2.03;;;;;;;36.35;37.51;96893.91;5032801;28;20350;-69
2023/07/18 09:20:32;;;;;;;1.90;1.90;;;;;;;36.27;37.05;96892.94;5045203;28;20053;-69
2023/07/18 09:23:04;;;;;;;2.10;2.10;;;;;;;36.04;37.13;96845.53;5042414;28;20068;-70
2023/07/18 09:25:38;;;;;;;2.58;2.47;;;;;;;35.49;37.54;96787.81;5044607;28;20136;-72
2023/07/18 09:28:09;;;;;;;2.08;2.08;;;;;;;36.18;36.76;96890.47;5045450;28;20053;-68
2023/07/18 09:30:36;;;;;;;2.20;2.20;;;;;;;36.32;36.68;96860.38;5042501;28;20044;-68
2023/07/18 09:33:04;;;;;;;2.03;2.03;;;;;;;36.45;37.52;96869.06;5045965;28;20045;-70
2023/07/18 09:35:39;;;;;;;1.80;1.80;;;;;;;36.73;36.89;96876.50;5042826;28;20160;-68
2023/07/18 09:38:07;;;;;;;2.00;2.00;;;;;;;36.35;36.72;96876.59;5039989;28;20053;-69
2023/07/18 09:40:35;;;;;;;2.25;2.25;;;;;;;36.66;36.45;96854.06;5024940;28;20053;-69
2023/07/18 09:43:02;;;;;;;2.42;2.38;;;;;;;36.44;35.85;96853.09;5039799;28;20049;-69
2023/07/18 09:45:29;;;;;;;1.95;1.95;;;;;;;36.61;35.28;96875.94;5025479;28;20061;-69
2023/07/18 09:47:57;;;;;;;1.92;1.92;;;;;;;36.79;35.67;96874.34;5027019;28;20053;-70
2023/07/18 09:50:26;;;;;;;1.88;1.88;;;;;;;35.84;36.94;96872.03;5024770;28;20057;-70
2023/07/18 09:52:57;;;;;;;2.05;2.05;;;;;;;36.30;36.33;96879.50;5025263;28;20080;-70
2023/07/18 09:55:26;;;;;;;1.90;1.90;;;;;;;36.41;35.78;96845.53;5024994;28;20061;-70
2023/07/18 09:58:00;;;;;;;1.98;1.98;;;;;;;36.34;37.32;96851.94;5040874;28;20053;-70
2023/07/18 10:00:26;;;;;;;;;;;;;;;35.89;38.35;96868.28;5024884;28;20064;-69
2023/07/18 10:02:56;;;;;;;2.00;2.00;;;;;;;35.24;39.05;96846.75;5025370;28;21080;-70
2023/07/18 10:05:23;;;;;;;2.20;2.20;;;;;;;35.40;39.35;96865.97;5024681;28;20451;-70
2023/07/18 10:07:50;;;;;;;2.13;2.13;;;;;;;34.56;40.78;96817.00;5023228;28;20131;-70
2023/07/18 10:10:18;;;;;;;1.90;1.90;;;;;;;35.31;40.04;96870.00;5023397;28;20080;-70
2023/07/18 10:12:53;;;;;;;2.00;2.00;;;;;;;35.17;39.63;96869.06;5024160;28;20511;-70
2023/07/18 10:15:21;;;;;;;2.00;2.00;;;;;;;35.23;39.28;96868.22;5024783;28;20134;-70
2023/07/18 10:17:49;;;;;;;2.50;2.42;;;;;;;35.52;39.92;96839.38;5025319;28;20053;-70
2023/07/18 10:20:39;;;;;;;1.95;1.95;;;;;;;35.51;40.26;96855.13;5039683;28;20049;-69
2023/07/18 10:23:08;;;;;;;2.00;2.00;;;;;;;35.26;39.25;96821.84;5025148;28;20466;-69
2023/07/18 10:25:34;;;;;;;1.95;1.95;;;;;;;35.55;39.88;96838.31;5024744;28;20056;-68
2023/07/18 10:28:02;;;;;;;1.95;1.95;;;;;;;35.25;39.81;96849.09;5023078;28;20538;-70
2023/07/18 10:30:41;;;;;;;2.08;2.08;;;;;;;35.46;40.13;96853.06;5024600;28;20053;-70
2023/07/18 10:33:09;;;;;;;1.80;1.80;;;;;;;35.32;39.92;96796.63;5024443;28;20049;-69
2023/07/18 10:35:41;;;;;;;2.05;2.05;;;;;;;35.58;39.96;96842.97;5024219;28;20405;-69
2023/07/18 10:38:08;;;;;;;2.03;2.03;;;;;;;35.73;39.49;96834.66;5024208;28;20165;-70
2023/07/18 10:40:39;;;;;;;1.98;1.98;;;;;;;35.51;40.29;96826.28;5023969;28;20524;-68
2023/07/18 10:43:08;;;;;;;1.95;1.95;;;;;;;35.13;41.13;96824.59;5023629;28;20050;-70
2023/07/18 10:45:41;;;;;;;1.85;1.85;;;;;;;35.72;40.39;96823.66;5023911;28;20077;-69
2023/07/18 10:48:12;;;;;;;1.97;1.97;;;;;;;35.57;40.38;96812.56;5026227;28;20050;-69
2023/07/18 10:50:39;;;;;;;2.42;2.35;;;;;;;35.46;39.33;96778.13;5023813;28;20062;-69
2023/07/18 10:53:10;;;;;;;2.10;2.10;;;;;;;35.59;39.16;96786.88;5024214;28;20428;-68
2023/07/18 10:55:37;;;;;;;1.98;1.98;;;;;;;35.00;40.75;96798.56;5023898;28;20049;-70
2023/07/18 10:58:10;;;;;;;1.88;1.88;;;;;;;35.18;41.53;96826.66;5023830;28;20567;-68
2023/07/18 11:00:39;;;;;;;1.95;1.95;;;;;;;35.75;39.17;96823.38;5023491;28;20554;-69
2023/07/18 11:03:07;;;;;;;2.20;2.20;;;;;;;36.24;38.33;96807.47;5038938;28;20053;-70
2023/07/18 11:05:34;;;;;;;2.00;2.00;;;;;;;36.05;38.47;96772.09;5024107;28;20045;-71
2023/07/18 11:08:00;;;;;;;1.92;1.92;;;;;;;36.14;38.16;96797.66;5022731;28;20103;-70
2023/07/18 11:10:31;;;;;;;1.85;1.85;;;;;;;36.12;38.75;96788.00;5023327;28;20140;-70
2023/07/18 11:12:58;;;;;;;2.00;2.00;;;;;;;36.25;38.55;96809.03;5023431;28;20512;-69
2023/07/18 11:15:25;;;;;;;1.98;1.98;;;;;;;36.20;37.61;96812.75;5023785;28;20049;-69
2023/07/18 11:17:53;;;;;;;1.80;1.80;;;;;;;36.23;37.44;96779.94;5024208;28;20060;-70
2023/07/18 11:20:20;;;;;;;2.25;2.25;;;;;;;35.83;38.78;96804.16;5023683;28;20479;-69
2023/07/18 11:22:49;;;;;;;1.95;1.95;;;;;;;35.46;40.49;96788.91;5024324;28;20052;-69
2023/07/18 11:25:16;;;;;;;2.17;2.17;;;;;;;35.75;39.88;96790.84;5026745;28;20068;-69
2023/07/18 11:27:48;;;;;;;2.03;2.03;;;;;;;35.89;37.52;96781.78;5030807;28;20129;-70
2023/07/18 11:30:14;;;;;;;1.95;1.95;;;;;;;35.96;37.28;96763.84;5028827;28;20099;-69
2023/07/18 11:32:45;;;;;;;1.85;1.85;;;;;;;36.00;36.66;96764.31;5030011;28;20479;-69
2023/07/18 11:35:20;;;;;;;2.13;2.13;;;;;;;36.43;35.04;96796.69;5030034;28;20045;-69
2023/07/18 11:37:51;;;;;;;1.90;1.90;;;;;;;36.49;36.28;96765.63;5028894;28;20079;-70